sensor_id;sensor_type;location;lat;lon;timestamp;pressure;altitude;pressure_sealevel;temperature
75811;BMP280;64449;50.016;19.954;2023-04-06T00:01:17;99069.39;;;3.01
75811;BMP280;64449;50.016;19.954;2023-04-06T00:03:42;99072.34;;;2.96
75811;BMP280;64449;50.016;19.954;2023-04-06T00:06:07;99072.39;;;2.91
75811;BMP280;64449;50.016;19.954;2023-04-06T00:08:33;99064.30;;;2.88
75811;BMP280;64449;50.016;19.954;2023-04-06T00:10:58;99063.63;;;2.87
75811;BMP280;64449;50.016;19.954;2023-04-06T00:13:23;99065.48;;;2.86
75811;BMP280;64449;50.016;19.954;2023-04-06T00:15:49;99068.34;;;2.86
75811;BMP280;64449;50.016;19.954;2023-04-06T00:18:14;99066.50;;;2.89
75811;BMP280;64449;50.016;19.954;2023-04-06T00:20:40;99067.10;;;2.93
75811;BMP280;64449;50.016;19.954;2023-04-06T00:23:05;99067.82;;;2.93
75811;BMP280;64449;50.016;19.954;2023-04-06T00:25:31;99062.98;;;2.90
75811;BMP280;64449;50.016;19.954;2023-04-06T00:27:56;99062.83;;;2.91
75811;BMP280;64449;50.016;19.954;2023-04-06T00:30:22;99062.23;;;2.90
75811;BMP280;64449;50.016;19.954;2023-04-06T00:32:47;99061.13;;;2.90
75811;BMP280;64449;50.016;19.954;2023-04-06T00:35:12;99060.90;;;2.90
75811;BMP280;64449;50.016;19.954;2023-04-06T00:37:37;99062.95;;;2.93
75811;BMP280;64449;50.016;19.954;2023-04-06T00:40:03;99061.02;;;2.94
75811;BMP280;64449;50.016;19.954;2023-04-06T00:42:29;99058.56;;;2.97
75811;BMP280;64449;50.016;19.954;2023-04-06T00:44:57;99056.91;;;2.96
75811;BMP280;64449;50.016;19.954;2023-04-06T00:47:23;99054.88;;;2.94
75811;BMP280;64449;50.016;19.954;2023-04-06T00:49:51;99053.90;;;2.95
75811;BMP280;64449;50.016;19.954;2023-04-06T00:52:17;99053.09;;;2.95
75811;BMP280;64449;50.016;19.954;2023-04-06T00:54:43;99051.19;;;2.92
75811;BMP280;64449;50.016;19.954;2023-04-06T00:57:11;99050.29;;;2.89
75811;BMP280;64449;50.016;19.954;2023-04-06T00:59:36;99049.34;;;2.87
75811;BMP280;64449;50.016;19.954;2023-04-06T01:02:02;99046.13;;;2.85
75811;BMP280;64449;50.016;19.954;2023-04-06T01:04:27;99045.20;;;2.86
75811;BMP280;64449;50.016;19.954;2023-04-06T01:06:52;99047.13;;;2.87
75811;BMP280;64449;50.016;19.954;2023-04-06T01:09:18;99048.20;;;2.89
75811;BMP280;64449;50.016;19.954;2023-04-06T01:11:43;99047.05;;;2.91
75811;BMP280;64449;50.016;19.954;2023-04-06T01:14:09;99046.02;;;2.90
75811;BMP280;64449;50.016;19.954;2023-04-06T01:16:35;99043.52;;;2.91
75811;BMP280;64449;50.016;19.954;2023-04-06T01:19:01;99042.55;;;2.91
75811;BMP280;64449;50.016;19.954;2023-04-06T01:21:27;99039.23;;;2.91
75811;BMP280;64449;50.016;19.954;2023-04-06T01:23:52;99041.46;;;2.92
75811;BMP280;64449;50.016;19.954;2023-04-06T01:26:17;99039.79;;;2.89
75811;BMP280;64449;50.016;19.954;2023-04-06T01:28:43;99038.34;;;2.87
75811;BMP280;64449;50.016;19.954;2023-04-06T01:31:10;99038.02;;;2.78
75811;BMP280;64449;50.016;19.954;2023-04-06T01:33:35;99039.16;;;2.73
75811;BMP280;64449;50.016;19.954;2023-04-06T01:36:02;99034.98;;;2.72
75811;BMP280;64449;50.016;19.954;2023-04-06T01:38:27;99030.44;;;2.73
75811;BMP280;64449;50.016;19.954;2023-04-06T01:40:53;99029.45;;;2.76
75811;BMP280;64449;50.016;19.954;2023-04-06T01:43:18;99029.48;;;2.76
75811;BMP280;64449;50.016;19.954;2023-04-06T01:45:44;99028.96;;;2.76
75811;BMP280;64449;50.016;19.954;2023-04-06T01:48:09;99024.90;;;2.72
75811;BMP280;64449;50.016;19.954;2023-04-06T01:50:35;99025.52;;;2.68
75811;BMP280;64449;50.016;19.954;2023-04-06T01:53:00;99025.89;;;2.64
75811;BMP280;64449;50.016;19.954;2023-04-06T01:55:26;99026.33;;;2.61
75811;BMP280;64449;50.016;19.954;2023-04-06T01:57:51;99023.06;;;2.59
75811;BMP280;64449;50.016;19.954;2023-04-06T02:00:16;99020.34;;;2.60
75811;BMP280;64449;50.016;19.954;2023-04-06T02:02:42;99019.95;;;2.60
75811;BMP280;64449;50.016;19.954;2023-04-06T02:05:08;99020.91;;;2.61
75811;BMP280;64449;50.016;19.954;2023-04-06T02:07:33;99022.84;;;2.59
75811;BMP280;64449;50.016;19.954;2023-04-06T02:09:59;99017.66;;;2.56
75811;BMP280;64449;50.016;19.954;2023-04-06T02:12:25;99019.14;;;2.54
75811;BMP280;64449;50.016;19.954;2023-04-06T02:14:51;99016.00;;;2.50
75811;BMP280;64449;50.016;19.954;2023-04-06T02:17:16;99018.47;;;2.49
75811;BMP280;64449;50.016;19.954;2023-04-06T02:19:42;99017.85;;;2.50
75811;BMP280;64449;50.016;19.954;2023-04-06T02:22:07;99020.86;;;2.48
75811;BMP280;64449;50.016;19.954;2023-04-06T02:24:32;99020.27;;;2.47
75811;BMP280;64449;50.016;19.954;2023-04-06T02:26:58;99016.15;;;2.41
75811;BMP280;64449;50.016;19.954;2023-04-06T02:29:24;99014.44;;;2.39
75811;BMP280;64449;50.016;19.954;2023-04-06T02:31:49;99011.14;;;2.38
75811;BMP280;64449;50.016;19.954;2023-04-06T02:34:15;99006.35;;;2.38
75811;BMP280;64449;50.016;19.954;2023-04-06T02:36:46;99008.05;;;2.36
75811;BMP280;64449;50.016;19.954;2023-04-06T02:39:12;99011.56;;;2.34
75811;BMP280;64449;50.016;19.954;2023-04-06T02:41:38;99014.95;;;2.33
75811;BMP280;64449;50.016;19.954;2023-04-06T02:44:06;99017.80;;;2.31
75811;BMP280;64449;50.016;19.954;2023-04-06T02:46:32;99020.15;;;2.28
75811;BMP280;64449;50.016;19.954;2023-04-06T02:48:57;99018.58;;;2.25
75811;BMP280;64449;50.016;19.954;2023-04-06T02:51:25;99019.36;;;2.24
75811;BMP280;64449;50.016;19.954;2023-04-06T02:53:51;99017.39;;;2.24
75811;BMP280;64449;50.016;19.954;2023-04-06T02:56:16;99020.22;;;2.25
75811;BMP280;64449;50.016;19.954;2023-04-06T02:58:41;99021.70;;;2.26
75811;BMP280;64449;50.016;19.954;2023-04-06T03:01:07;99021.13;;;2.28
75811;BMP280;64449;50.016;19.954;2023-04-06T03:03:32;99025.73;;;2.29
75811;BMP280;64449;50.016;19.954;2023-04-06T03:05:57;99023.83;;;2.28
75811;BMP280;64449;50.016;19.954;2023-04-06T03:08:24;99023.40;;;2.26
75811;BMP280;64449;50.016;19.954;2023-04-06T03:10:50;99020.77;;;2.22
75811;BMP280;64449;50.016;19.954;2023-04-06T03:13:16;99019.46;;;2.16
75811;BMP280;64449;50.016;19.954;2023-04-06T03:15:41;99025.06;;;2.14
75811;BMP280;64449;50.016;19.954;2023-04-06T03:18:06;99025.90;;;2.13
75811;BMP280;64449;50.016;19.954;2023-04-06T03:20:32;99031.31;;;2.12
75811;BMP280;64449;50.016;19.954;2023-04-06T03:22:58;99025.43;;;2.07
75811;BMP280;64449;50.016;19.954;2023-04-06T03:25:23;99021.82;;;2.06
75811;BMP280;64449;50.016;19.954;2023-04-06T03:27:48;99024.33;;;2.06
75811;BMP280;64449;50.016;19.954;2023-04-06T03:30:14;99028.71;;;2.06
75811;BMP280;64449;50.016;19.954;2023-04-06T03:32:42;99025.10;;;2.05
75811;BMP280;64449;50.016;19.954;2023-04-06T03:35:07;99025.91;;;2.04
75811;BMP280;64449;50.016;19.954;2023-04-06T03:37:33;99022.13;;;2.06
75811;BMP280;64449;50.016;19.954;2023-04-06T03:39:58;99024.70;;;2.07
75811;BMP280;64449;50.016;19.954;2023-04-06T03:42:24;99028.88;;;2.08
75811;BMP280;64449;50.016;19.954;2023-04-06T03:44:50;99033.36;;;2.07
75811;BMP280;64449;50.016;19.954;2023-04-06T03:47:15;99035.27;;;2.06
75811;BMP280;64449;50.016;19.954;2023-04-06T03:49:40;99032.58;;;2.05
75811;BMP280;64449;50.016;19.954;2023-04-06T03:52:06;99033.80;;;2.02
75811;BMP280;64449;50.016;19.954;2023-04-06T03:54:31;99031.24;;;2.01
75811;BMP280;64449;50.016;19.954;2023-04-06T03:56:56;99031.04;;;1.97
75811;BMP280;64449;50.016;19.954;2023-04-06T03:59:22;99028.91;;;2.01
75811;BMP280;64449;50.016;19.954;2023-04-06T04:01:47;99030.09;;;2.04
75811;BMP280;64449;50.016;19.954;2023-04-06T04:04:12;99028.32;;;2.03
75811;BMP280;64449;50.016;19.954;2023-04-06T04:06:38;99029.86;;;2.01
75811;BMP280;64449;50.016;19.954;2023-04-06T04:09:03;99027.57;;;1.99
75811;BMP280;64449;50.016;19.954;2023-04-06T04:11:29;99027.98;;;1.98
75811;BMP280;64449;50.016;19.954;2023-04-06T04:13:54;99030.54;;;1.99
75811;BMP280;64449;50.016;19.954;2023-04-06T04:16:20;99036.52;;;2.02
75811;BMP280;64449;50.016;19.954;2023-04-06T04:18:45;99038.02;;;2.03
75811;BMP280;64449;50.016;19.954;2023-04-06T04:21:12;99036.56;;;2.05
75811;BMP280;64449;50.016;19.954;2023-04-06T04:23:38;99035.00;;;2.04
75811;BMP280;64449;50.016;19.954;2023-04-06T04:26:03;99031.89;;;2.02
75811;BMP280;64449;50.016;19.954;2023-04-06T04:28:28;99029.29;;;2.04
75811;BMP280;64449;50.016;19.954;2023-04-06T04:30:53;99028.81;;;2.06
75811;BMP280;64449;50.016;19.954;2023-04-06T04:33:19;99030.60;;;2.06
75811;BMP280;64449;50.016;19.954;2023-04-06T04:35:45;99027.55;;;2.05
75811;BMP280;64449;50.016;19.954;2023-04-06T04:38:10;99027.92;;;2.04
75811;BMP280;64449;50.016;19.954;2023-04-06T04:40:35;99029.98;;;2.03
75811;BMP280;64449;50.016;19.954;2023-04-06T04:43:01;99030.14;;;2.02
75811;BMP280;64449;50.016;19.954;2023-04-06T04:45:26;99032.94;;;2.03
75811;BMP280;64449;50.016;19.954;2023-04-06T04:47:51;99026.98;;;2.07
75811;BMP280;64449;50.016;19.954;2023-04-06T04:50:17;99023.94;;;2.11
75811;BMP280;64449;50.016;19.954;2023-04-06T04:52:42;99023.86;;;2.17
75811;BMP280;64449;50.016;19.954;2023-04-06T04:55:08;99025.25;;;2.22
75811;BMP280;64449;50.016;19.954;2023-04-06T04:57:33;99026.95;;;2.26
75811;BMP280;64449;50.016;19.954;2023-04-06T04:59:58;99026.23;;;2.28
75811;BMP280;64449;50.016;19.954;2023-04-06T05:02:24;99025.35;;;2.31
75811;BMP280;64449;50.016;19.954;2023-04-06T05:04:49;99024.97;;;2.37
75811;BMP280;64449;50.016;19.954;2023-04-06T05:07:15;99024.64;;;2.43
75811;BMP280;64449;50.016;19.954;2023-04-06T05:09:40;99021.98;;;2.48
75811;BMP280;64449;50.016;19.954;2023-04-06T05:12:06;99021.40;;;2.56
75811;BMP280;64449;50.016;19.954;2023-04-06T05:14:32;99021.19;;;2.63
75811;BMP280;64449;50.016;19.954;2023-04-06T05:16:59;99020.84;;;2.68
75811;BMP280;64449;50.016;19.954;2023-04-06T05:19:24;99023.45;;;2.75
75811;BMP280;64449;50.016;19.954;2023-04-06T05:21:50;99021.07;;;2.79
75811;BMP280;64449;50.016;19.954;2023-04-06T05:24:15;99019.70;;;2.83
75811;BMP280;64449;50.016;19.954;2023-04-06T05:26:40;99018.85;;;2.88
75811;BMP280;64449;50.016;19.954;2023-04-06T05:29:06;99022.48;;;2.97
75811;BMP280;64449;50.016;19.954;2023-04-06T05:31:32;99022.27;;;3.03
75811;BMP280;64449;50.016;19.954;2023-04-06T05:33:57;99020.35;;;3.06
75811;BMP280;64449;50.016;19.954;2023-04-06T05:36:23;99018.86;;;3.13
75811;BMP280;64449;50.016;19.954;2023-04-06T05:38:48;99017.55;;;3.22
75811;BMP280;64449;50.016;19.954;2023-04-06T05:41:15;99019.18;;;3.28
75811;BMP280;64449;50.016;19.954;2023-04-06T05:43:41;99016.81;;;3.36
75811;BMP280;64449;50.016;19.954;2023-04-06T05:46:07;99017.87;;;3.43
75811;BMP280;64449;50.016;19.954;2023-04-06T05:48:32;99011.92;;;3.49
75811;BMP280;64449;50.016;19.954;2023-04-06T05:50:57;99012.48;;;3.56
75811;BMP280;64449;50.016;19.954;2023-04-06T05:53:23;99011.79;;;3.60
75811;BMP280;64449;50.016;19.954;2023-04-06T05:55:51;99013.64;;;3.68
75811;BMP280;64449;50.016;19.954;2023-04-06T05:58:17;99012.09;;;3.76
75811;BMP280;64449;50.016;19.954;2023-04-06T06:00:42;99013.17;;;3.84
75811;BMP280;64449;50.016;19.954;2023-04-06T06:03:08;99010.19;;;3.88
75811;BMP280;64449;50.016;19.954;2023-04-06T06:05:34;99010.55;;;3.96
75811;BMP280;64449;50.016;19.954;2023-04-06T06:08:00;99014.41;;;4.03
75811;BMP280;64449;50.016;19.954;2023-04-06T06:10:27;99010.60;;;4.08
75811;BMP280;64449;50.016;19.954;2023-04-06T06:12:53;99009.64;;;4.14
75811;BMP280;64449;50.016;19.954;2023-04-06T06:15:18;99010.83;;;4.22
75811;BMP280;64449;50.016;19.954;2023-04-06T06:17:43;99011.80;;;4.28
75811;BMP280;64449;50.016;19.954;2023-04-06T06:20:09;99012.61;;;4.37
75811;BMP280;64449;50.016;19.954;2023-04-06T06:22:35;99014.77;;;4.44
75811;BMP280;64449;50.016;19.954;2023-04-06T06:25:01;99011.92;;;4.50
75811;BMP280;64449;50.016;19.954;2023-04-06T06:27:27;99012.13;;;4.54
75811;BMP280;64449;50.016;19.954;2023-04-06T06:29:52;99011.20;;;4.61
75811;BMP280;64449;50.016;19.954;2023-04-06T06:32:18;99010.67;;;4.67
75811;BMP280;64449;50.016;19.954;2023-04-06T06:34:43;99010.16;;;4.71
75811;BMP280;64449;50.016;19.954;2023-04-06T06:37:09;99013.71;;;4.77
75811;BMP280;64449;50.016;19.954;2023-04-06T06:39:35;99014.16;;;4.80
75811;BMP280;64449;50.016;19.954;2023-04-06T06:42:00;99015.98;;;4.84
75811;BMP280;64449;50.016;19.954;2023-04-06T06:44:27;99014.80;;;4.90
75811;BMP280;64449;50.016;19.954;2023-04-06T06:46:52;99014.77;;;4.91
75811;BMP280;64449;50.016;19.954;2023-04-06T06:49:19;99013.30;;;4.90
75811;BMP280;64449;50.016;19.954;2023-04-06T06:51:45;99011.92;;;4.95
75811;BMP280;64449;50.016;19.954;2023-04-06T06:54:12;99012.01;;;5.01
75811;BMP280;64449;50.016;19.954;2023-04-06T06:56:38;99014.81;;;5.03
75811;BMP280;64449;50.016;19.954;2023-04-06T06:59:05;99012.89;;;4.99
75811;BMP280;64449;50.016;19.954;2023-04-06T07:01:34;99013.80;;;5.01
75811;BMP280;64449;50.016;19.954;2023-04-06T07:04:00;99010.27;;;5.04
75811;BMP280;64449;50.016;19.954;2023-04-06T07:06:25;99013.95;;;5.00
75811;BMP280;64449;50.016;19.954;2023-04-06T07:08:51;99012.56;;;5.05
75811;BMP280;64449;50.016;19.954;2023-04-06T07:11:16;99014.92;;;5.11
75811;BMP280;64449;50.016;19.954;2023-04-06T07:13:42;99014.80;;;5.13
75811;BMP280;64449;50.016;19.954;2023-04-06T07:16:07;99012.09;;;5.20
75811;BMP280;64449;50.016;19.954;2023-04-06T07:18:33;99008.81;;;5.25
75811;BMP280;64449;50.016;19.954;2023-04-06T07:20:59;99010.73;;;5.36
75811;BMP280;64449;50.016;19.954;2023-04-06T07:23:24;99011.97;;;5.43
75811;BMP280;64449;50.016;19.954;2023-04-06T07:25:49;99012.23;;;5.46
75811;BMP280;64449;50.016;19.954;2023-04-06T07:28:17;99016.11;;;5.40
75811;BMP280;64449;50.016;19.954;2023-04-06T07:30:43;99015.34;;;5.37
75811;BMP280;64449;50.016;19.954;2023-04-06T07:33:08;99015.27;;;5.43
75811;BMP280;64449;50.016;19.954;2023-04-06T07:35:34;99015.77;;;5.47
75811;BMP280;64449;50.016;19.954;2023-04-06T07:38:01;99016.13;;;5.49
75811;BMP280;64449;50.016;19.954;2023-04-06T07:40:27;99011.98;;;5.54
75811;BMP280;64449;50.016;19.954;2023-04-06T07:42:52;99014.25;;;5.55
75811;BMP280;64449;50.016;19.954;2023-04-06T07:45:18;99011.94;;;5.55
75811;BMP280;64449;50.016;19.954;2023-04-06T07:47:43;99012.16;;;5.57
75811;BMP280;64449;50.016;19.954;2023-04-06T07:50:09;99012.02;;;5.62
75811;BMP280;64449;50.016;19.954;2023-04-06T07:52:35;99008.81;;;5.72
75811;BMP280;64449;50.016;19.954;2023-04-06T07:55:01;99007.49;;;5.79
75811;BMP280;64449;50.016;19.954;2023-04-06T07:57:26;99007.50;;;5.81
75811;BMP280;64449;50.016;19.954;2023-04-06T07:59:52;98997.33;;;5.87
75811;BMP280;64449;50.016;19.954;2023-04-06T08:02:17;98996.64;;;5.92
75811;BMP280;64449;50.016;19.954;2023-04-06T08:04:43;99001.63;;;5.96
75811;BMP280;64449;50.016;19.954;2023-04-06T08:07:09;99000.42;;;5.99
75811;BMP280;64449;50.016;19.954;2023-04-06T08:09:34;98994.86;;;6.05
75811;BMP280;64449;50.016;19.954;2023-04-06T08:12:00;98992.31;;;6.08
75811;BMP280;64449;50.016;19.954;2023-04-06T08:14:25;98992.21;;;6.12
75811;BMP280;64449;50.016;19.954;2023-04-06T08:16:51;98987.27;;;6.13
75811;BMP280;64449;50.016;19.954;2023-04-06T08:19:16;98986.20;;;6.19
75811;BMP280;64449;50.016;19.954;2023-04-06T08:21:44;98985.59;;;6.31
75811;BMP280;64449;50.016;19.954;2023-04-06T08:24:12;98976.86;;;6.48
75811;BMP280;64449;50.016;19.954;2023-04-06T08:26:37;98981.96;;;6.72
75811;BMP280;64449;50.016;19.954;2023-04-06T08:29:03;98987.31;;;6.90
75811;BMP280;64449;50.016;19.954;2023-04-06T08:31:29;98977.27;;;7.11
75811;BMP280;64449;50.016;19.954;2023-04-06T08:33:55;98978.73;;;7.24
75811;BMP280;64449;50.016;19.954;2023-04-06T08:36:21;98975.28;;;7.36
75811;BMP280;64449;50.016;19.954;2023-04-06T08:38:48;98971.21;;;7.52
75811;BMP280;64449;50.016;19.954;2023-04-06T08:41:15;98968.80;;;7.79
75811;BMP280;64449;50.016;19.954;2023-04-06T08:44:07;98971.95;;;8.09
75811;BMP280;64449;50.016;19.954;2023-04-06T08:46:33;98970.73;;;8.52
75811;BMP280;64449;50.016;19.954;2023-04-06T08:49:00;98969.80;;;8.82
75811;BMP280;64449;50.016;19.954;2023-04-06T08:51:28;98960.59;;;9.12
75811;BMP280;64449;50.016;19.954;2023-04-06T08:53:54;98955.30;;;9.28
75811;BMP280;64449;50.016;19.954;2023-04-06T08:56:24;98956.36;;;9.31
75811;BMP280;64449;50.016;19.954;2023-04-06T08:58:50;98952.98;;;9.29
75811;BMP280;64449;50.016;19.954;2023-04-06T09:01:20;98950.20;;;9.26
75811;BMP280;64449;50.016;19.954;2023-04-06T09:03:48;98951.33;;;9.14
75811;BMP280;64449;50.016;19.954;2023-04-06T09:06:14;98951.52;;;8.82
75811;BMP280;64449;50.016;19.954;2023-04-06T09:08:40;98947.78;;;8.69
75811;BMP280;64449;50.016;19.954;2023-04-06T09:11:06;98945.92;;;8.55
75811;BMP280;64449;50.016;19.954;2023-04-06T09:13:53;98949.21;;;8.43
75811;BMP280;64449;50.016;19.954;2023-04-06T09:16:20;98942.80;;;8.28
75811;BMP280;64449;50.016;19.954;2023-04-06T09:18:46;98942.46;;;8.21
75811;BMP280;64449;50.016;19.954;2023-04-06T09:21:12;98943.72;;;8.21
75811;BMP280;64449;50.016;19.954;2023-04-06T09:23:38;98941.61;;;8.19
75811;BMP280;64449;50.016;19.954;2023-04-06T09:26:12;98938.02;;;8.15
75811;BMP280;64449;50.016;19.954;2023-04-06T09:28:46;98945.14;;;8.15
75811;BMP280;64449;50.016;19.954;2023-04-06T09:31:16;98937.43;;;8.11
75811;BMP280;64449;50.016;19.954;2023-04-06T09:33:44;98937.80;;;8.11
75811;BMP280;64449;50.016;19.954;2023-04-06T09:36:10;98932.83;;;8.07
75811;BMP280;64449;50.016;19.954;2023-04-06T09:38:53;98927.27;;;8.00
75811;BMP280;64449;50.016;19.954;2023-04-06T09:41:23;98928.45;;;8.03
75811;BMP280;64449;50.016;19.954;2023-04-06T09:43:51;98928.23;;;8.08
75811;BMP280;64449;50.016;19.954;2023-04-06T09:46:17;98919.74;;;8.11
75811;BMP280;64449;50.016;19.954;2023-04-06T09:48:43;98921.07;;;8.13
75811;BMP280;64449;50.016;19.954;2023-04-06T09:51:10;98917.31;;;8.09
75811;BMP280;64449;50.016;19.954;2023-04-06T09:53:41;98925.81;;;8.07
75811;BMP280;64449;50.016;19.954;2023-04-06T09:56:11;98924.58;;;8.01
75811;BMP280;64449;50.016;19.954;2023-04-06T09:58:40;98925.45;;;8.04
75811;BMP280;64449;50.016;19.954;2023-04-06T10:01:13;98923.72;;;8.12
75811;BMP280;64449;50.016;19.954;2023-04-06T10:04:13;98924.16;;;8.19
75811;BMP280;64449;50.016;19.954;2023-04-06T10:06:41;98923.70;;;8.27
75811;BMP280;64449;50.016;19.954;2023-04-06T10:09:07;98925.30;;;8.33
75811;BMP280;64449;50.016;19.954;2023-04-06T10:11:33;98923.80;;;8.32
75811;BMP280;64449;50.016;19.954;2023-04-06T10:14:00;98925.02;;;8.35
75811;BMP280;64449;50.016;19.954;2023-04-06T10:16:26;98929.48;;;8.35
75811;BMP280;64449;50.016;19.954;2023-04-06T10:19:01;98929.05;;;8.36
75811;BMP280;64449;50.016;19.954;2023-04-06T10:21:28;98923.77;;;8.32
75811;BMP280;64449;50.016;19.954;2023-04-06T10:23:58;98921.30;;;8.25
75811;BMP280;64449;50.016;19.954;2023-04-06T10:26:24;98918.97;;;8.24
75811;BMP280;64449;50.016;19.954;2023-04-06T10:28:50;98925.70;;;8.15
75811;BMP280;64449;50.016;19.954;2023-04-06T10:31:24;98929.48;;;8.10
75811;BMP280;64449;50.016;19.954;2023-04-06T10:34:00;98925.45;;;8.02
75811;BMP280;64449;50.016;19.954;2023-04-06T10:36:28;98920.50;;;7.90
75811;BMP280;64449;50.016;19.954;2023-04-06T10:38:56;98919.23;;;7.76
75811;BMP280;64449;50.016;19.954;2023-04-06T10:41:22;98919.48;;;7.75
75811;BMP280;64449;50.016;19.954;2023-04-06T10:43:55;98916.73;;;7.76
75811;BMP280;64449;50.016;19.954;2023-04-06T10:46:28;98914.80;;;7.78
75811;BMP280;64449;50.016;19.954;2023-04-06T10:48:54;98915.80;;;7.78
75811;BMP280;64449;50.016;19.954;2023-04-06T10:51:26;98910.86;;;7.72
75811;BMP280;64449;50.016;19.954;2023-04-06T10:53:53;98910.48;;;7.69
75811;BMP280;64449;50.016;19.954;2023-04-06T10:56:22;98913.98;;;7.62
75811;BMP280;64449;50.016;19.954;2023-04-06T10:58:50;98912.68;;;7.62
75811;BMP280;64449;50.016;19.954;2023-04-06T11:01:18;98909.56;;;7.62
75811;BMP280;64449;50.016;19.954;2023-04-06T11:03:48;98906.20;;;7.65
75811;BMP280;64449;50.016;19.954;2023-04-06T11:06:24;98903.83;;;7.65
75811;BMP280;64449;50.016;19.954;2023-04-06T11:08:50;98901.98;;;7.55
75811;BMP280;64449;50.016;19.954;2023-04-06T11:11:18;98900.16;;;7.43
75811;BMP280;64449;50.016;19.954;2023-04-06T11:16:33;98902.44;;;7.27
75811;BMP280;64449;50.016;19.954;2023-04-06T11:19:01;98903.74;;;7.24
75811;BMP280;64449;50.016;19.954;2023-04-06T11:24:16;98897.40;;;7.10
75811;BMP280;64449;50.016;19.954;2023-04-06T11:26:47;98899.19;;;7.06
75811;BMP280;64449;50.016;19.954;2023-04-06T11:29:16;98900.11;;;7.00
75811;BMP280;64449;50.016;19.954;2023-04-06T11:31:50;98898.13;;;6.94
75811;BMP280;64449;50.016;19.954;2023-04-06T11:34:18;98902.33;;;6.89
75811;BMP280;64449;50.016;19.954;2023-04-06T11:36:45;98897.81;;;6.86
75811;BMP280;64449;50.016;19.954;2023-04-06T11:39:17;98896.41;;;6.85
75811;BMP280;64449;50.016;19.954;2023-04-06T11:41:47;98896.80;;;6.79
75811;BMP280;64449;50.016;19.954;2023-04-06T11:44:13;98899.23;;;6.78
75811;BMP280;64449;50.016;19.954;2023-04-06T11:46:51;98897.61;;;6.74
75811;BMP280;64449;50.016;19.954;2023-04-06T11:49:16;98897.93;;;6.76
75811;BMP280;64449;50.016;19.954;2023-04-06T11:51:42;98895.77;;;6.69
75811;BMP280;64449;50.016;19.954;2023-04-06T11:54:07;98896.01;;;6.69
75811;BMP280;64449;50.016;19.954;2023-04-06T11:56:33;98895.98;;;6.63
75811;BMP280;64449;50.016;19.954;2023-04-06T11:58:58;98894.22;;;6.62
75811;BMP280;64449;50.016;19.954;2023-04-06T12:01:26;98893.63;;;6.64
75811;BMP280;64449;50.016;19.954;2023-04-06T12:03:52;98891.22;;;6.67
75811;BMP280;64449;50.016;19.954;2023-04-06T12:06:18;98889.48;;;6.71
75811;BMP280;64449;50.016;19.954;2023-04-06T12:08:43;98886.33;;;6.75
75811;BMP280;64449;50.016;19.954;2023-04-06T12:11:10;98875.63;;;6.78
75811;BMP280;64449;50.016;19.954;2023-04-06T12:13:36;98873.86;;;6.76
75811;BMP280;64449;50.016;19.954;2023-04-06T12:16:01;98868.33;;;6.72
75811;BMP280;64449;50.016;19.954;2023-04-06T12:18:27;98875.83;;;6.72
75811;BMP280;64449;50.016;19.954;2023-04-06T12:20:52;98876.10;;;6.71
75811;BMP280;64449;50.016;19.954;2023-04-06T12:23:19;98875.27;;;6.67
75811;BMP280;64449;50.016;19.954;2023-04-06T12:25:44;98884.25;;;6.64
75811;BMP280;64449;50.016;19.954;2023-04-06T12:28:09;98886.02;;;6.58
75811;BMP280;64449;50.016;19.954;2023-04-06T12:30:35;98886.51;;;6.57
75811;BMP280;64449;50.016;19.954;2023-04-06T12:33:00;98883.09;;;6.52
75811;BMP280;64449;50.016;19.954;2023-04-06T12:35:26;98882.20;;;6.50
75811;BMP280;64449;50.016;19.954;2023-04-06T12:37:52;98877.92;;;6.47
75811;BMP280;64449;50.016;19.954;2023-04-06T12:40:18;98876.20;;;6.44
75811;BMP280;64449;50.016;19.954;2023-04-06T12:42:43;98874.06;;;6.41
75811;BMP280;64449;50.016;19.954;2023-04-06T12:45:09;98874.48;;;6.33
75811;BMP280;64449;50.016;19.954;2023-04-06T12:47:35;98867.67;;;6.26
75811;BMP280;64449;50.016;19.954;2023-04-06T12:50:06;98866.89;;;6.24
75811;BMP280;64449;50.016;19.954;2023-04-06T12:52:32;98863.80;;;6.21
75811;BMP280;64449;50.016;19.954;2023-04-06T12:55:03;98862.55;;;6.14
75811;BMP280;64449;50.016;19.954;2023-04-06T12:57:30;98861.79;;;6.03
75811;BMP280;64449;50.016;19.954;2023-04-06T12:59:56;98856.34;;;5.87
75811;BMP280;64449;50.016;19.954;2023-04-06T13:02:22;98855.19;;;5.79
75811;BMP280;64449;50.016;19.954;2023-04-06T13:04:48;98854.61;;;5.72
75811;BMP280;64449;50.016;19.954;2023-04-06T13:07:14;98853.20;;;5.62
75811;BMP280;64449;50.016;19.954;2023-04-06T13:09:40;98851.98;;;5.56
75811;BMP280;64449;50.016;19.954;2023-04-06T13:12:05;98849.84;;;5.52
75811;BMP280;64449;50.016;19.954;2023-04-06T13:14:31;98843.77;;;5.44
75811;BMP280;64449;50.016;19.954;2023-04-06T13:16:57;98839.18;;;5.41
75811;BMP280;64449;50.016;19.954;2023-04-06T13:19:22;98838.23;;;5.38
75811;BMP280;64449;50.016;19.954;2023-04-06T13:21:48;98835.19;;;5.36
75811;BMP280;64449;50.016;19.954;2023-04-06T13:24:13;98833.92;;;5.30
75811;BMP280;64449;50.016;19.954;2023-04-06T13:26:39;98825.14;;;5.24
75811;BMP280;64449;50.016;19.954;2023-04-06T13:29:04;98820.80;;;5.19
75811;BMP280;64449;50.016;19.954;2023-04-06T13:31:30;98815.67;;;5.13
75811;BMP280;64449;50.016;19.954;2023-04-06T13:33:56;98818.13;;;5.12
75811;BMP280;64449;50.016;19.954;2023-04-06T13:36:22;98820.56;;;5.06
75811;BMP280;64449;50.016;19.954;2023-04-06T13:38:47;98821.18;;;5.04
75811;BMP280;64449;50.016;19.954;2023-04-06T13:41:23;98822.02;;;5.04
75811;BMP280;64449;50.016;19.954;2023-04-06T13:43:49;98818.91;;;5.04
75811;BMP280;64449;50.016;19.954;2023-04-06T13:46:15;98818.70;;;5.03
75811;BMP280;64449;50.016;19.954;2023-04-06T13:48:41;98818.96;;;4.99
75811;BMP280;64449;50.016;19.954;2023-04-06T13:51:08;98821.13;;;4.95
75811;BMP280;64449;50.016;19.954;2023-04-06T13:53:34;98823.11;;;4.94
75811;BMP280;64449;50.016;19.954;2023-04-06T13:55:59;98824.67;;;4.95
75811;BMP280;64449;50.016;19.954;2023-04-06T13:58:25;98822.92;;;4.94
75811;BMP280;64449;50.016;19.954;2023-04-06T14:00:53;98819.81;;;4.94
75811;BMP280;64449;50.016;19.954;2023-04-06T14:03:19;98822.52;;;4.92
75811;BMP280;64449;50.016;19.954;2023-04-06T14:05:45;98830.61;;;4.92
75811;BMP280;64449;50.016;19.954;2023-04-06T14:08:11;98830.21;;;4.87
75811;BMP280;64449;50.016;19.954;2023-04-06T14:10:38;98829.38;;;4.86